createdAt,value
2019-03-30T00:01:24.028Z,97110.36
2019-03-30T00:03:52.684Z,97109.41
2019-03-30T00:06:21.183Z,97108.62
2019-03-30T00:08:49.834Z,97106.80
2019-03-30T00:11:18.328Z,97112.35
2019-03-30T00:13:46.829Z,97110.86
2019-03-30T00:16:15.337Z,97109.40
2019-03-30T00:18:43.824Z,97118.43
2019-03-30T00:21:12.348Z,97118.69
2019-03-30T00:23:40.895Z,97112.78
2019-03-30T00:26:09.397Z,97123.52
2019-03-30T00:28:38.074Z,97121.86
2019-03-30T00:31:06.634Z,97120.55
2019-03-30T00:33:35.126Z,97118.44
2019-03-30T00:36:03.608Z,97116.20
2019-03-30T00:38:32.297Z,97120.73
2019-03-30T00:41:00.781Z,97122.55
2019-03-30T00:43:29.271Z,97126.67
2019-03-30T00:45:57.856Z,97121.95
2019-03-30T00:48:26.340Z,97120.71
2019-03-30T00:50:54.818Z,97118.30
2019-03-30T00:53:23.348Z,97119.45
2019-03-30T00:55:51.824Z,97119.73
2019-03-30T00:58:20.350Z,97126.52
2019-03-30T01:00:48.958Z,97122.31
2019-03-30T01:03:17.415Z,97125.08
2019-03-30T01:05:46.046Z,97128.56
2019-03-30T01:08:14.545Z,97119.17
2019-03-30T01:10:43.059Z,97129.39
2019-03-30T01:13:11.932Z,97126.92
2019-03-30T01:15:40.516Z,97131.84
2019-03-30T01:18:08.996Z,97136.19
2019-03-30T01:20:37.557Z,97135.35
2019-03-30T01:23:06.052Z,97128.75
2019-03-30T01:25:34.555Z,97132.42
2019-03-30T01:28:03.050Z,97140.09
2019-03-30T01:30:31.673Z,97134.73
2019-03-30T01:33:00.192Z,97131.38
2019-03-30T01:35:28.845Z,97132.84
2019-03-30T01:37:57.435Z,97127.80
2019-03-30T01:40:25.940Z,97129.64
2019-03-30T01:42:54.413Z,97134.02
2019-03-30T01:45:22.979Z,97133.80
2019-03-30T01:47:51.504Z,97135.77
2019-03-30T01:50:20.009Z,97130.25
2019-03-30T01:52:48.501Z,97128.75
2019-03-30T01:55:17.038Z,97116.86
2019-03-30T01:57:45.531Z,97126.00
2019-03-30T02:00:14.424Z,97130.13
2019-03-30T02:02:42.941Z,97119.06
2019-03-30T02:05:11.665Z,97123.92
2019-03-30T02:07:40.152Z,97124.78
2019-03-30T02:10:09.668Z,97114.52
2019-03-30T02:12:38.439Z,97119.54
2019-03-30T02:15:07.944Z,97117.86
2019-03-30T02:17:36.416Z,97126.58
2019-03-30T02:20:10.564Z,97120.94
2019-03-30T02:22:39.062Z,97121.78
2019-03-30T02:25:08.324Z,97122.33
2019-03-30T02:27:36.838Z,97123.02
2019-03-30T02:30:07.672Z,97119.67
2019-03-30T02:32:36.136Z,97118.31
2019-03-30T02:35:06.967Z,97123.95
2019-03-30T02:37:35.466Z,97117.16
2019-03-30T02:40:06.167Z,97112.34
2019-03-30T02:42:34.686Z,97110.97
2019-03-30T02:45:03.169Z,97111.97
2019-03-30T02:47:31.671Z,97123.84
2019-03-30T02:50:00.623Z,97127.36
2019-03-30T02:52:29.130Z,97127.42
2019-03-30T02:54:57.614Z,97123.16
2019-03-30T02:57:26.093Z,97124.17
2019-03-30T02:59:54.566Z,97125.50
2019-03-30T03:02:23.309Z,97131.91
2019-03-30T03:04:51.850Z,97126.22
2019-03-30T03:07:20.321Z,97132.95
2019-03-30T03:09:48.827Z,97132.91
2019-03-30T03:12:17.334Z,97136.59
2019-03-30T03:14:45.808Z,97130.86
2019-03-30T03:17:14.287Z,97134.58
2019-03-30T03:19:43.155Z,97140.94
2019-03-30T03:22:11.613Z,97132.91
2019-03-30T03:24:40.112Z,97138.09
2019-03-30T03:27:08.601Z,97143.95
2019-03-30T03:29:37.079Z,97140.27
2019-03-30T03:32:05.632Z,97136.22
2019-03-30T03:34:34.152Z,97138.94
2019-03-30T03:37:02.629Z,97130.77
2019-03-30T03:39:31.104Z,97134.66
2019-03-30T03:42:04.588Z,97129.52
2019-03-30T03:44:33.058Z,97131.69
2019-03-30T03:47:01.547Z,97128.38
2019-03-30T03:49:30.033Z,97131.09
2019-03-30T03:51:59.282Z,97132.89
2019-03-30T03:54:28.990Z,97110.90
2019-03-30T03:56:58.838Z,97122.53
2019-03-30T03:59:28.410Z,97119.19
2019-03-30T04:01:59.400Z,97117.69
2019-03-30T04:04:28.282Z,97115.84
2019-03-30T04:06:59.760Z,97120.73
2019-03-30T04:09:30.861Z,97117.39
2019-03-30T04:12:00.101Z,97123.77
2019-03-30T04:14:30.455Z,97112.09
2019-03-30T04:16:59.022Z,97114.58
2019-03-30T04:19:27.679Z,97110.00
2019-03-30T04:21:56.163Z,97112.30
2019-03-30T04:24:24.656Z,97111.38
2019-03-30T04:26:53.161Z,97107.16
2019-03-30T04:29:21.645Z,97108.10
2019-03-30T04:31:50.339Z,97112.58
2019-03-30T04:34:18.773Z,97106.06
2019-03-30T04:36:47.324Z,97106.44
2019-03-30T04:39:15.781Z,97105.73
2019-03-30T04:41:44.298Z,97107.23
2019-03-30T04:44:12.785Z,97098.36
2019-03-30T04:46:41.258Z,97095.69
2019-03-30T04:49:09.742Z,97100.70
2019-03-30T04:51:56.568Z,97099.98
2019-03-30T04:54:13.824Z,97100.59
2019-03-30T04:56:42.511Z,97095.00
2019-03-30T04:59:10.997Z,97099.13
2019-03-30T05:01:39.498Z,97107.64
2019-03-30T05:04:07.996Z,97104.64
2019-03-30T05:06:36.489Z,97101.47
2019-03-30T05:09:06.274Z,97103.42
2019-03-30T05:11:34.751Z,97100.09
2019-03-30T05:14:03.259Z,97103.66
2019-03-30T05:16:31.718Z,97107.68
2019-03-30T05:19:00.188Z,97103.48
2019-03-30T05:21:28.851Z,97105.67
2019-03-30T05:23:57.364Z,97115.76
2019-03-30T05:26:25.878Z,97115.30
2019-03-30T05:28:54.377Z,97114.85
2019-03-30T05:31:22.862Z,97116.94
2019-03-30T05:33:51.361Z,97118.85
2019-03-30T05:36:19.873Z,97117.35
2019-03-30T05:38:48.528Z,97120.36
2019-03-30T05:41:17.012Z,97115.68
2019-03-30T05:43:45.505Z,97113.71
2019-03-30T05:46:13.995Z,97115.41
2019-03-30T05:48:42.489Z,97112.77
2019-03-30T05:51:10.995Z,97113.10
2019-03-30T05:53:39.502Z,97112.77
2019-03-30T05:56:08.063Z,97107.42
2019-03-30T05:58:36.549Z,97113.91
2019-03-30T06:01:05.031Z,97109.73
2019-03-30T06:03:33.526Z,97109.39
2019-03-30T06:06:01.994Z,97114.10
2019-03-30T06:08:30.479Z,97110.76
2019-03-30T06:10:59.066Z,97109.59
2019-03-30T06:13:27.526Z,97106.72
2019-03-30T06:15:56.091Z,97100.67
2019-03-30T06:18:24.561Z,97107.78
2019-03-30T06:20:53.022Z,97098.26
2019-03-30T06:23:21.601Z,97090.91
2019-03-30T06:25:50.113Z,97086.56
2019-03-30T06:28:19.178Z,97095.63
2019-03-30T06:30:47.645Z,97084.59
2019-03-30T06:33:16.113Z,97081.55
2019-03-30T06:35:44.601Z,97084.67
2019-03-30T06:38:13.059Z,97086.52
2019-03-30T06:40:41.528Z,97079.48
2019-03-30T06:43:10.086Z,97077.65
2019-03-30T06:45:38.571Z,97082.37
2019-03-30T06:48:07.020Z,97082.25
2019-03-30T06:50:35.570Z,97076.67
2019-03-30T06:53:04.062Z,97076.67
2019-03-30T06:55:32.531Z,97070.36
2019-03-30T06:58:01.031Z,97071.36
2019-03-30T07:00:34.195Z,97072.39
2019-03-30T07:03:05.012Z,97064.91
2019-03-30T07:05:36.535Z,97067.72
2019-03-30T07:08:05.282Z,97071.22
2019-03-30T07:10:33.982Z,97069.39
2019-03-30T07:13:04.011Z,97075.73
2019-03-30T07:15:34.774Z,97080.09
2019-03-30T07:18:04.915Z,97072.44
2019-03-30T07:20:33.875Z,97072.13
2019-03-30T07:23:11.881Z,97077.95
2019-03-30T07:25:32.572Z,97072.58
2019-03-30T07:28:01.042Z,97072.92
2019-03-30T07:30:29.597Z,97074.90
2019-03-30T07:32:58.081Z,97067.52
2019-03-30T07:35:26.567Z,97069.36
2019-03-30T07:37:55.175Z,97066.85
2019-03-30T07:40:23.753Z,97065.72
2019-03-30T07:42:52.345Z,97063.38
2019-03-30T07:45:21.406Z,97055.99
2019-03-30T07:47:49.908Z,97055.49
2019-03-30T07:50:18.624Z,97056.63
2019-03-30T07:52:47.114Z,97051.62
2019-03-30T07:55:15.629Z,97050.12
2019-03-30T07:57:44.171Z,97048.41
2019-03-30T08:00:13.356Z,97041.89
2019-03-30T08:02:41.839Z,97049.16
2019-03-30T08:05:10.445Z,97048.28
2019-03-30T08:07:38.910Z,97047.44
2019-03-30T08:10:07.480Z,97048.45
2019-03-30T08:12:36.039Z,97054.47
2019-03-30T08:15:07.248Z,97040.41
2019-03-30T08:17:35.770Z,97047.78
2019-03-30T08:20:05.891Z,97043.32
2019-03-30T08:22:34.393Z,97041.31
2019-03-30T08:25:02.957Z,97046.36
2019-03-30T08:27:31.451Z,97041.22
2019-03-30T08:29:59.890Z,97040.83
2019-03-30T08:32:28.388Z,97040.48
2019-03-30T08:34:56.836Z,97037.93
2019-03-30T08:37:25.299Z,97035.64
2019-03-30T08:39:53.762Z,97041.05
2019-03-30T08:42:22.307Z,97038.53
2019-03-30T08:44:50.809Z,97032.52
2019-03-30T08:47:19.297Z,97034.88
2019-03-30T08:49:47.789Z,97033.76
2019-03-30T08:52:16.261Z,97037.05
2019-03-30T08:54:44.794Z,97033.55
2019-03-30T08:57:13.438Z,97030.20
2019-03-30T08:59:41.906Z,97030.28
2019-03-30T09:02:10.385Z,97035.56
2019-03-30T09:04:38.861Z,97017.83
2019-03-30T09:07:07.371Z,97025.75
2019-03-30T09:09:35.885Z,97018.67
2019-03-30T09:12:04.439Z,97015.98
2019-03-30T09:14:32.970Z,97020.83
2019-03-30T09:17:01.468Z,97015.58
2019-03-30T09:19:29.973Z,97010.39
2019-03-30T09:21:58.447Z,96999.61
2019-03-30T09:24:26.939Z,97003.25
2019-03-30T09:26:55.430Z,97005.48
2019-03-30T09:29:23.899Z,97008.88
2019-03-30T09:31:52.394Z,97007.30
2019-03-30T09:34:20.912Z,97000.51
2019-03-30T09:36:49.601Z,96993.54
2019-03-30T09:39:18.106Z,96990.08
2019-03-30T09:41:46.592Z,96987.88
2019-03-30T09:44:15.073Z,96986.64
2019-03-30T09:46:43.536Z,96984.91
2019-03-30T09:49:12.072Z,96984.59
2019-03-30T09:51:40.552Z,96980.24
2019-03-30T09:54:22.816Z,96976.03
2019-03-30T09:56:39.262Z,96978.25
2019-03-30T09:59:07.782Z,96973.22
2019-03-30T10:01:36.636Z,96979.55
2019-03-30T10:04:05.384Z,96961.10
2019-03-30T10:06:34.796Z,96969.46
2019-03-30T10:09:04.011Z,96963.20
2019-03-30T10:11:32.499Z,96963.91
2019-03-30T10:14:01.021Z,96953.06
2019-03-30T10:16:29.560Z,96959.73
2019-03-30T10:18:58.066Z,96955.04
2019-03-30T10:21:26.707Z,96949.61
2019-03-30T10:23:55.222Z,96945.66
2019-03-30T10:26:23.731Z,96941.53
2019-03-30T10:28:52.244Z,96936.94
2019-03-30T10:31:20.952Z,96933.81
2019-03-30T10:33:49.450Z,96924.81
2019-03-30T10:36:17.912Z,96922.48
2019-03-30T10:38:46.402Z,96919.06
2019-03-30T10:41:14.901Z,96917.03
2019-03-30T10:43:43.657Z,96907.92
2019-03-30T10:46:12.120Z,96911.81
2019-03-30T10:48:40.629Z,96903.12
2019-03-30T10:51:09.156Z,96909.09
2019-03-30T10:53:37.641Z,96909.92
2019-03-30T10:56:06.162Z,96897.55
2019-03-30T10:58:34.655Z,96897.20
2019-03-30T11:01:03.161Z,96895.16
2019-03-30T11:03:31.676Z,96897.20
2019-03-30T11:06:00.152Z,96885.47
2019-03-30T11:08:28.666Z,96878.47
2019-03-30T11:10:57.345Z,96883.34
2019-03-30T11:13:25.842Z,96874.48
2019-03-30T11:15:54.352Z,96871.83
2019-03-30T11:18:22.851Z,96872.19
2019-03-30T11:20:51.692Z,96867.65
2019-03-30T11:23:20.237Z,96868.02
2019-03-30T11:25:48.736Z,96857.72
2019-03-30T11:28:17.228Z,96854.73
2019-03-30T11:30:45.828Z,96862.84
2019-03-30T11:33:14.342Z,96853.34
2019-03-30T11:35:43.027Z,96844.33
2019-03-30T11:38:11.548Z,96851.17
2019-03-30T11:40:40.472Z,96848.52
2019-03-30T11:43:08.963Z,96840.55
2019-03-30T11:45:37.563Z,96839.39
2019-03-30T11:48:06.062Z,96835.05
2019-03-30T11:50:34.537Z,96834.58
2019-03-30T11:53:03.057Z,96826.98
2019-03-30T11:55:31.565Z,96827.66
2019-03-30T11:58:00.173Z,96819.72
2019-03-30T12:00:28.749Z,96814.53
2019-03-30T12:02:57.241Z,96811.61
2019-03-30T12:05:25.752Z,96816.89
2019-03-30T12:07:54.277Z,96816.09
2019-03-30T12:10:22.774Z,96810.36
2019-03-30T12:12:51.308Z,96807.27
2019-03-30T12:15:19.837Z,96800.73
2019-03-30T12:17:48.519Z,96795.59
2019-03-30T12:20:17.168Z,96790.71
2019-03-30T12:22:45.739Z,96792.16
2019-03-30T12:25:14.234Z,96784.23
2019-03-30T12:27:42.763Z,96781.80
2019-03-30T12:30:11.703Z,96780.98
2019-03-30T12:32:40.205Z,96778.52
2019-03-30T12:35:08.970Z,96770.84
2019-03-30T12:37:37.494Z,96773.30
2019-03-30T12:40:07.443Z,96765.68
2019-03-30T12:42:36.028Z,96758.36
2019-03-30T12:45:07.070Z,96752.35
2019-03-30T12:47:35.628Z,96743.58
2019-03-30T12:50:06.188Z,96747.13
2019-03-30T12:52:34.681Z,96735.94
2019-03-30T12:55:03.441Z,96729.09
2019-03-30T12:57:31.947Z,96727.72
2019-03-30T13:00:00.448Z,96723.05
2019-03-30T13:02:28.940Z,96726.08
2019-03-30T13:04:57.462Z,96718.93
2019-03-30T13:07:25.962Z,96713.47
2019-03-30T13:09:54.482Z,96703.34
2019-03-30T13:12:22.990Z,96697.03
2019-03-30T13:14:51.475Z,96690.14
2019-03-30T13:17:19.998Z,96684.70
2019-03-30T13:19:48.853Z,96683.84
2019-03-30T13:22:17.349Z,96676.72
2019-03-30T13:24:45.870Z,96677.55
2019-03-30T13:27:14.349Z,96673.75
2019-03-30T13:29:42.853Z,96664.42
2019-03-30T13:32:11.438Z,96666.31
2019-03-30T13:34:39.929Z,96657.76
2019-03-30T13:37:16.541Z,96654.47
2019-03-30T13:39:45.659Z,96666.04
2019-03-30T13:42:14.210Z,96654.27
2019-03-30T13:44:42.744Z,96645.47
2019-03-30T13:47:11.257Z,96649.03
2019-03-30T13:49:39.866Z,96652.08
2019-03-30T13:52:08.455Z,96646.59
2019-03-30T13:54:38.782Z,96645.77
2019-03-30T13:57:07.190Z,96645.19
2019-03-30T13:59:35.703Z,96638.58
2019-03-30T14:02:04.286Z,96640.73
2019-03-30T14:04:32.787Z,96629.81
2019-03-30T14:07:01.307Z,96628.21
2019-03-30T14:09:29.826Z,96628.80
2019-03-30T14:11:58.329Z,96623.04
2019-03-30T14:14:26.853Z,96613.45
2019-03-30T14:16:55.349Z,96614.52
2019-03-30T14:19:23.847Z,96619.41
2019-03-30T14:21:52.363Z,96604.92
2019-03-30T14:24:20.883Z,96598.91
2019-03-30T14:26:49.378Z,96605.43
2019-03-30T14:29:17.911Z,96602.10
2019-03-30T14:31:46.423Z,96600.41
2019-03-30T14:34:14.909Z,96592.73
2019-03-30T14:36:43.425Z,96576.39
2019-03-30T14:39:11.924Z,96589.90
2019-03-30T14:41:40.422Z,96588.54
2019-03-30T14:44:08.955Z,96588.27
2019-03-30T14:46:37.479Z,96578.17
2019-03-30T14:49:06.381Z,96588.30
2019-03-30T14:51:34.910Z,96575.74
2019-03-30T14:54:03.435Z,96587.20
2019-03-30T14:56:44.892Z,96583.64
2019-03-30T14:59:09.973Z,96582.59
2019-03-30T15:01:32.477Z,96582.89
2019-03-30T15:04:00.977Z,96578.48
2019-03-30T15:06:29.561Z,96574.70
2019-03-30T15:08:58.080Z,96577.17
2019-03-30T15:11:26.585Z,96575.55
2019-03-30T15:13:55.105Z,96577.50
2019-03-30T15:16:23.694Z,96573.37
2019-03-30T15:18:52.188Z,96576.66
2019-03-30T15:21:20.690Z,96573.03
2019-03-30T15:23:49.190Z,96572.73
2019-03-30T15:26:17.693Z,96570.53
2019-03-30T15:28:46.204Z,96572.18
2019-03-30T15:31:14.712Z,96564.24
2019-03-30T15:33:43.212Z,96570.30
2019-03-30T15:36:11.690Z,96562.97
2019-03-30T15:38:40.233Z,96565.16
2019-03-30T15:41:08.750Z,96564.61
2019-03-30T15:43:38.782Z,96572.82
2019-03-30T15:46:07.623Z,96576.94
2019-03-30T15:48:36.103Z,96575.91
2019-03-30T15:51:04.674Z,96569.34
2019-03-30T15:53:33.251Z,96567.66
2019-03-30T15:56:01.741Z,96568.44
2019-03-30T15:58:30.231Z,96565.10
2019-03-30T16:00:58.807Z,96574.91
2019-03-30T16:03:27.364Z,96572.69
2019-03-30T16:05:55.885Z,96571.60
2019-03-30T16:08:24.742Z,96574.84
2019-03-30T16:10:53.217Z,96569.09
2019-03-30T16:13:21.735Z,96569.91
2019-03-30T16:15:50.327Z,96567.77
2019-03-30T16:18:18.802Z,96570.71
2019-03-30T16:20:47.293Z,96575.59
2019-03-30T16:23:15.787Z,96569.00
2019-03-30T16:25:44.348Z,96570.02
2019-03-30T16:28:12.912Z,96563.17
2019-03-30T16:30:41.507Z,96567.75
2019-03-30T16:33:10.010Z,96570.38
2019-03-30T16:35:38.497Z,96575.00
2019-03-30T16:38:07.085Z,96568.78
2019-03-30T16:40:35.593Z,96573.83
2019-03-30T16:43:04.386Z,96577.86
2019-03-30T16:45:32.890Z,96572.88
2019-03-30T16:48:01.387Z,96568.50
2019-03-30T16:50:29.888Z,96573.29
2019-03-30T16:52:58.365Z,96568.89
2019-03-30T16:55:26.844Z,96566.67
2019-03-30T16:57:55.356Z,96574.27
2019-03-30T17:00:23.887Z,96579.33
2019-03-30T17:02:52.402Z,96572.20
2019-03-30T17:05:20.917Z,96574.86
2019-03-30T17:07:49.399Z,96574.20
2019-03-30T17:10:17.986Z,96577.28
2019-03-30T17:12:46.483Z,96576.91
2019-03-30T17:15:15.112Z,96585.70
2019-03-30T17:17:43.632Z,96588.48
2019-03-30T17:20:13.245Z,96585.28
2019-03-30T17:22:41.746Z,96594.25
2019-03-30T17:25:10.422Z,96597.88
2019-03-30T17:27:38.952Z,96597.86
2019-03-30T17:30:09.155Z,96594.22
2019-03-30T17:32:37.741Z,96595.41
2019-03-30T17:35:07.295Z,96590.97
2019-03-30T17:37:35.788Z,96597.75
2019-03-30T17:40:08.718Z,96601.05
2019-03-30T17:42:38.963Z,96601.83
2019-03-30T17:45:09.863Z,96608.50
2019-03-30T17:47:38.399Z,96609.97
2019-03-30T17:50:08.141Z,96614.66
2019-03-30T17:52:36.652Z,96612.34
2019-03-30T17:55:06.076Z,96609.04
2019-03-30T17:57:34.585Z,96608.75
2019-03-30T18:00:07.748Z,96612.69
2019-03-30T18:02:34.340Z,96619.17
2019-03-30T18:05:02.835Z,96621.35
2019-03-30T18:07:31.350Z,96619.17
2019-03-30T18:10:03.295Z,96619.78
2019-03-30T18:12:30.081Z,96620.16
2019-03-30T18:14:58.598Z,96625.55
2019-03-30T18:17:27.108Z,96623.77
2019-03-30T18:19:55.626Z,96621.12
2019-03-30T18:22:24.121Z,96621.92
2019-03-30T18:24:52.624Z,96620.87
2019-03-30T18:27:21.153Z,96619.51
2019-03-30T18:29:49.663Z,96619.77
2019-03-30T18:32:18.691Z,96618.63
2019-03-30T18:34:47.435Z,96621.03
2019-03-30T18:37:17.368Z,96622.39
2019-03-30T18:39:46.524Z,96629.75
2019-03-30T18:42:15.034Z,96628.99
2019-03-30T18:44:44.613Z,96628.04
2019-03-30T18:47:13.152Z,96640.07
2019-03-30T18:49:42.762Z,96637.19
2019-03-30T18:52:11.517Z,96644.69
2019-03-30T18:54:41.950Z,96636.62
2019-03-30T18:57:10.525Z,96640.77
2019-03-30T18:59:39.103Z,96644.33
2019-03-30T19:02:07.695Z,96645.73
2019-03-30T19:04:36.195Z,96638.93
2019-03-30T19:07:04.721Z,96639.80
2019-03-30T19:09:33.230Z,96647.02
2019-03-30T19:12:01.893Z,96648.37
2019-03-30T19:14:30.411Z,96648.48
2019-03-30T19:16:58.882Z,96649.95
2019-03-30T19:19:27.383Z,96647.50
2019-03-30T19:21:55.908Z,96651.55
2019-03-30T19:24:24.400Z,96654.86
2019-03-30T19:26:52.897Z,96652.75
2019-03-30T19:29:21.410Z,96654.00
2019-03-30T19:31:49.905Z,96653.59
2019-03-30T19:34:18.419Z,96646.38
2019-03-30T19:36:47.002Z,96649.69
2019-03-30T19:39:15.517Z,96646.00
2019-03-30T19:41:44.054Z,96649.72
2019-03-30T19:44:12.557Z,96645.36
2019-03-30T19:46:41.083Z,96654.71
2019-03-30T19:49:09.595Z,96643.59
2019-03-30T19:51:38.114Z,96644.11
2019-03-30T19:54:06.610Z,96646.44
2019-03-30T19:56:35.119Z,96641.55
2019-03-30T19:59:10.582Z,96642.48
2019-03-30T20:01:33.958Z,96641.89
2019-03-30T20:04:02.465Z,96642.34
2019-03-30T20:06:30.956Z,96627.94
2019-03-30T20:08:59.457Z,96640.70
2019-03-30T20:11:28.046Z,96634.70
2019-03-30T20:13:56.524Z,96645.13
2019-03-30T20:16:25.050Z,96638.25
2019-03-30T20:19:11.036Z,96639.30
2019-03-30T20:21:23.760Z,96643.89
2019-03-30T20:23:52.255Z,96647.42
2019-03-30T20:26:20.768Z,96647.42
2019-03-30T20:28:49.303Z,96646.68
2019-03-30T20:31:17.808Z,96651.56
2019-03-30T20:33:46.317Z,96650.35
2019-03-30T20:36:14.800Z,96654.36
2019-03-30T20:38:43.296Z,96653.84
2019-03-30T20:41:11.880Z,96656.68
2019-03-30T20:43:40.348Z,96661.19
2019-03-30T20:46:08.819Z,96656.92
2019-03-30T20:48:37.324Z,96650.85
2019-03-30T20:51:05.826Z,96649.89
2019-03-30T20:53:34.315Z,96649.72
2019-03-30T20:56:02.848Z,96646.58
2019-03-30T20:58:31.324Z,96646.41
2019-03-30T21:00:59.982Z,96644.70
2019-03-30T21:03:28.487Z,96649.72
2019-03-30T21:05:56.989Z,96647.18
2019-03-30T21:08:25.477Z,96648.36
2019-03-30T21:10:53.994Z,96645.81
2019-03-30T21:13:22.481Z,96649.42
2019-03-30T21:15:50.959Z,96648.20
2019-03-30T21:18:19.526Z,96644.76
2019-03-30T21:20:48.015Z,96637.54
2019-03-30T21:23:16.507Z,96642.05
2019-03-30T21:25:45.048Z,96640.39
2019-03-30T21:28:13.643Z,96641.13
2019-03-30T21:30:42.125Z,96636.69
2019-03-30T21:33:10.620Z,96625.05
2019-03-30T21:35:39.104Z,96633.59
2019-03-30T21:38:07.618Z,96640.87
2019-03-30T21:40:36.144Z,96633.30
2019-03-30T21:43:04.795Z,96632.98
2019-03-30T21:45:33.296Z,96632.62
2019-03-30T21:48:02.486Z,96635.32
2019-03-30T21:50:30.991Z,96636.27
2019-03-30T21:52:59.486Z,96639.13
2019-03-30T21:55:27.995Z,96635.66
2019-03-30T21:57:56.515Z,96635.08
2019-03-30T22:00:43.534Z,96634.98
2019-03-30T22:03:12.116Z,96630.63
2019-03-30T22:05:41.258Z,96638.05
2019-03-30T22:08:10.226Z,96637.91
2019-03-30T22:10:38.734Z,96636.27
2019-03-30T22:13:07.299Z,96634.56
2019-03-30T22:15:35.799Z,96635.91
2019-03-30T22:18:04.475Z,96634.98
2019-03-30T22:20:33.233Z,96635.12
2019-03-30T22:23:01.732Z,96636.03
2019-03-30T22:25:30.237Z,96631.30
2019-03-30T22:27:58.820Z,96626.30
2019-03-30T22:30:27.370Z,96623.91
2019-03-30T22:32:55.895Z,96630.89
2019-03-30T22:35:24.382Z,96631.06
2019-03-30T22:37:52.892Z,96631.30
2019-03-30T22:40:21.396Z,96632.05
2019-03-30T22:42:49.879Z,96632.05
2019-03-30T22:45:18.429Z,96637.23
2019-03-30T22:47:46.936Z,96633.47
2019-03-30T22:50:15.863Z,96627.46
2019-03-30T22:52:44.353Z,96638.05
2019-03-30T22:55:12.996Z,96636.60
2019-03-30T22:57:41.553Z,96635.88
2019-03-30T23:00:38.671Z,96640.04
2019-03-30T23:03:00.160Z,96642.11
2019-03-30T23:05:28.639Z,96646.77
2019-03-30T23:07:57.138Z,96643.14
2019-03-30T23:10:25.699Z,96631.27
2019-03-30T23:12:54.188Z,96640.14
2019-03-30T23:15:22.771Z,96642.23
2019-03-30T23:17:51.262Z,96641.73
2019-03-30T23:20:19.817Z,96641.23
2019-03-30T23:22:48.309Z,96642.16
2019-03-30T23:25:16.798Z,96644.02
2019-03-30T23:27:45.295Z,96641.11
2019-03-30T23:30:14.819Z,96638.41
2019-03-30T23:32:43.276Z,96634.47
2019-03-30T23:35:11.912Z,96635.63
2019-03-30T23:37:40.397Z,96636.24
2019-03-30T23:40:08.943Z,96635.53
2019-03-30T23:42:37.442Z,96628.38
2019-03-30T23:45:06.845Z,96635.22
2019-03-30T23:47:35.343Z,96629.52
2019-03-30T23:50:04.904Z,96627.66
2019-03-30T23:52:33.360Z,96634.90
2019-03-30T23:55:01.850Z,96629.09
2019-03-30T23:57:30.344Z,96630.52
2019-03-30T23:59:58.790Z,96629.20
